Whitewater, CO (81527)

6:43 AM MDT on August 22, 2014 (GMT -0600)
Meadowvale | Change Station
CLOSE
Current Station
Personal Weather Station
Location: Grand Junction, CO
Elevation: 4642 ft
Nearby Weather Stations

Elev 4642 ft 39.07 °N, 108.48 °W | Updated 0 second ago

Mostly Cloudy
Mostly Cloudy
66.0 °F
Feels Like 66.0 °F
N
9.8
Wind Variable Wind from South
Gusts 16.8 mph

Today
High -- | Low -- °F
--% Chance of Precip.
Yesterday
High -- | Low -- °F
Precip. -- in
6:33 AM 7:58 PM
Waning Crescent, 8% visible
Pressure 29.91 in
Visibility 10.0 miles
Clouds Mostly Cloudy 11000 ft
Dew Point 55 °F
Humidity 68%
Rainfall 0.00 in
Snow Depth 1 in
UV 0 out of 12
Pollen 9.10 out of 12
Air Quality Not available.
Flu Activity Not available.
METAR KGJT 221153Z 14018G24KT 10SM BKN110 19/09 A3010 RMK AO2 SLP126 60000 T01940089 10200 20172 53006

More Conditions Fewer Conditions

Pressure 29.91 in
Visibility 10.0 miles
Clouds Mostly Cloudy 11000 ft
Dew Point 55 °F
Humidity 68%
Rainfall 0.00 in
Snow Depth 1 in
UV 0 out of 12
Pollen 9.10 out of 12
Air Quality Not available.
Flu Activity Not available.
METAR KGJT 221153Z 14018G24KT 10SM BKN110 19/09 A3010 RMK AO2 SLP126 60000 T01940089 10200 20172 53006

More Conditions Fewer Conditions

10-Day Weather Forecast

Almanac

Astronomy

Aug. 22, 2014 Rise Set
Actual Time 6:33 AM MDT 7:58 PM MDT
Civil Twilight 6:05 AM MDT 8:26 PM MDT
Nautical Twilight 5:31 AM MDT 8:59 PM MDT
Astronomical Twilight 4:56 AM MDT 9:35 PM MDT
Moon 3:59 AM MDT 6:08 PM MDT
Length of Visible Light 14h 21m
Length of Day
13h 25m
Tomorrow will be 2m 19s shorter.
Waning Crescent, 8% of the Moon is Illuminated
Today
Waning Crescent
Aug 25
New
Sep 2
First Quarter
Sep 8
Full
Sep 15
Last Quarter

Today's Extremes

State Highs State Lows

Community

WunderPhotos

Upload Photos

1,746,158 photos uploaded!

WunderBlogs® & News

Nearby

Snow Depth

Station Depth Elevation
Mesa Lakes 1 in 10000 ft
Park Reservoir 0 in 9960 ft
Columbine Pass 0 in 9400 ft
Overland Reservoir 0 in 9880 ft
McClure Pass 0 in 9500 ft

Earthquake Activity

City Distance Mag. Time & Date
No recent earthquake activity has been reported nearby.
Minimum magnitude displayed is 2.5.

Coastal Water Temperatures

Place Temperature
No Stations Reporting

Nearby Weather Stations